Time;durP1;ratioP1;P1;durP2;ratioP2;P2;SDS_P1;SDS_P2;PMS_P1;PMS_P2;Temp;Humidity;BMP_temperature;BMP_pressure;BME280_temperature;BME280_humidity;BME280_pressure;Samples;Min_cycle;Max_cycle;Signal;HPM_P1;HPM_P2
2022/11/01 00:01:45;;;;;;;14.80;6.00;;;;;;;11.09;100.00;97274.63;5065105;28;20041;-62
2022/11/01 00:04:11;;;;;;;9.77;5.60;;;;;;;11.12;100.00;97273.28;5065994;28;20111;-62
2022/11/01 00:06:38;;;;;;;13.70;5.38;;;;;;;11.14;100.00;97269.28;5066055;28;20136;-62
2022/11/01 00:09:05;;;;;;;13.98;6.30;;;;;;;11.09;100.00;97271.91;5065251;28;20049;-62
2022/11/01 00:11:32;;;;;;;13.45;5.38;;;;;;;11.09;100.00;97265.69;5065644;28;20040;-62
2022/11/01 00:13:58;;;;;;;12.85;5.40;;;;;;;11.08;100.00;97266.75;5065699;28;20472;-62
2022/11/01 00:16:25;;;;;;;10.25;5.53;;;;;;;11.06;100.00;97261.63;5066003;28;20075;-62
2022/11/01 00:18:52;;;;;;;11.35;6.22;;;;;;;11.07;100.00;97260.53;5065874;28;20040;-61
2022/11/01 00:21:18;;;;;;;12.32;5.55;;;;;;;11.09;100.00;97258.38;5064954;28;20051;-62
2022/11/01 00:23:46;;;;;;;9.85;5.78;;;;;;;11.08;100.00;97259.47;5065383;28;20040;-62
2022/11/01 00:26:20;;;;;;;9.95;5.90;;;;;;;11.05;100.00;97258.09;5065056;28;20078;-62
2022/11/01 00:28:48;;;;;;;10.43;5.07;;;;;;;11.01;100.00;97253.44;5059286;28;20504;-62
2022/11/01 00:31:17;;;;;;;10.60;5.15;;;;;;;11.01;100.00;97253.44;5045286;28;20064;-61
2022/11/01 00:33:44;;;;;;;11.30;5.15;;;;;;;10.96;100.00;97251.50;5045778;28;20251;-62
2022/11/01 00:36:10;;;;;;;8.63;4.80;;;;;;;10.86;100.00;97259.53;5046060;28;20099;-62
2022/11/01 00:38:37;;;;;;;8.13;4.60;;;;;;;10.92;100.00;97258.50;5045649;28;20519;-62
2022/11/01 00:41:04;;;;;;;10.40;5.18;;;;;;;10.95;100.00;97259.88;5045281;28;20539;-62
2022/11/01 00:43:33;;;;;;;9.07;5.07;;;;;;;10.98;100.00;97257.47;5064458;28;20040;-62
2022/11/01 00:46:00;;;;;;;8.93;4.40;;;;;;;10.97;100.00;97255.84;5065923;28;20127;-62
2022/11/01 00:48:26;;;;;;;9.63;5.13;;;;;;;11.05;100.00;97258.09;5065270;28;20158;-62
2022/11/01 00:50:53;;;;;;;9.65;5.95;;;;;;;11.01;100.00;97251.53;5064123;28;20131;-62
2022/11/01 00:53:20;;;;;;;11.10;5.65;;;;;;;11.09;100.00;97257.56;5059584;28;20128;-62
2022/11/01 00:55:46;;;;;;;9.88;4.43;;;;;;;11.19;100.00;97258.47;5056910;28;20542;-61
2022/11/01 00:58:13;;;;;;;10.13;4.65;;;;;;;11.28;100.00;97261.50;5064885;28;20535;-61
2022/11/01 01:00:39;;;;;;;11.48;5.07;;;;;;;11.27;100.00;97264.47;5059991;28;20043;-62
2022/11/01 01:03:06;;;;;;;7.80;4.65;;;;;;;11.28;100.00;97266.13;5064952;28;20071;-62
2022/11/01 01:05:34;;;;;;;8.40;4.45;;;;;;;11.26;100.00;97263.69;5065633;28;20560;-62
2022/11/01 01:08:01;;;;;;;9.50;5.15;;;;;;;11.22;100.00;97267.16;5065216;28;20114;-61
2022/11/01 01:10:28;;;;;;;11.20;4.93;;;;;;;11.19;100.00;97268.47;5063691;28;20049;-62
2022/11/01 01:12:54;;;;;;;9.25;4.47;;;;;;;11.19;100.00;97254.94;5064994;28;20127;-62
2022/11/01 01:15:21;;;;;;;10.45;4.80;;;;;;;11.21;100.00;97257.41;5065275;28;20037;-62
2022/11/01 01:17:47;;;;;;;10.43;3.95;;;;;;;11.19;100.00;97258.47;5064921;28;20076;-62
2022/11/01 01:20:14;;;;;;;6.97;4.05;;;;;;;11.20;100.00;97256.56;5064446;28;20470;-62
2022/11/01 01:22:41;;;;;;;11.70;4.90;;;;;;;11.18;100.00;97256.81;5064710;28;20120;-61
2022/11/01 01:25:09;;;;;;;8.43;4.68;;;;;;;11.13;100.00;97256.78;5046904;28;20127;-61
2022/11/01 01:27:35;;;;;;;11.52;4.47;;;;;;;10.97;100.00;97258.56;5045285;28;20471;-62
2022/11/01 01:30:04;;;;;;;8.63;4.28;;;;;;;11.07;100.00;97257.81;5045373;28;20136;-61
2022/11/01 01:32:30;;;;;;;9.05;4.60;;;;;;;11.27;100.00;97251.75;5044263;28;20068;-62
2022/11/01 01:34:57;;;;;;;8.13;3.92;;;;;;;11.54;100.00;97260.88;5044948;28;20124;-62
2022/11/01 01:37:23;;;;;;;8.27;4.60;;;;;;;11.84;100.00;97259.44;5043642;28;20091;-61
2022/11/01 01:39:50;;;;;;;10.80;4.97;;;;;;;11.97;100.00;97253.53;5048755;28;20045;-61
2022/11/01 01:42:30;;;;;;;8.40;4.60;;;;;;;12.02;100.00;97249.22;5056337;28;20105;-61
2022/11/01 01:44:56;;;;;;;11.60;4.50;;;;;;;12.10;99.57;97249.53;5068599;28;20064;-62
2022/11/01 01:47:28;;;;;;;8.85;4.75;;;;;;;12.24;98.50;97246.38;5065588;28;20065;-62
2022/11/01 01:50:01;;;;;;;10.23;4.97;;;;;;;12.32;98.14;97245.81;5067011;28;20131;-62
2022/11/01 01:52:31;;;;;;;9.57;4.82;;;;;;;12.42;97.05;97238.81;5068797;28;20070;-61
2022/11/01 01:55:03;;;;;;;8.48;4.32;;;;;;;12.50;96.17;97246.44;5051941;28;20506;-61
2022/11/01 01:57:30;;;;;;;8.32;4.35;;;;;;;12.51;96.24;97248.06;5047729;28;20564;-62
2022/11/01 01:59:56;;;;;;;9.07;4.32;;;;;;;12.54;95.68;97252.97;5062518;28;20068;-61
2022/11/01 02:02:27;;;;;;;10.00;4.75;;;;;;;12.52;96.04;97257.84;5062031;28;20044;-62
2022/11/01 02:04:58;;;;;;;11.18;4.85;;;;;;;12.43;96.53;97259.44;5066155;28;20048;-61
2022/11/01 02:07:25;;;;;;;10.73;4.32;;;;;;;12.47;96.48;97260.53;5067608;28;20127;-62
2022/11/01 02:09:54;;;;;;;11.35;4.90;;;;;;;12.43;96.03;97264.88;5068463;28;20048;-61
2022/11/01 02:12:25;;;;;;;8.80;4.30;;;;;;;12.57;94.91;97262.47;5067784;28;20066;-61
2022/11/01 02:14:51;;;;;;;9.63;3.83;;;;;;;12.63;94.19;97269.53;5068468;28;20064;-62
2022/11/01 02:17:29;;;;;;;7.30;3.95;;;;;;;12.67;93.84;97269.81;5067889;28;20082;-62
2022/11/01 02:20:04;;;;;;;12.27;4.07;;;;;;;12.46;96.06;97257.00;5067872;28;20148;-62
2022/11/01 02:22:54;;;;;;;7.40;4.32;;;;;;;12.20;98.13;97262.34;5067856;28;20515;-62
2022/11/01 02:25:42;;;;;;;9.55;5.30;;;;;;;12.05;99.70;97259.56;5048161;28;20481;-61
2022/11/01 02:28:21;;;;;;;8.27;4.45;;;;;;;11.97;99.93;97258.97;5048276;28;20083;-62
2022/11/01 02:31:14;;;;;;;10.85;5.03;;;;;;;12.01;100.00;97255.72;5047073;28;20518;-62
2022/11/01 02:33:46;;;;;;;9.50;4.60;;;;;;;12.00;100.00;97256.78;5047779;28;20504;-61
2022/11/01 02:36:28;;;;;;;10.52;4.40;;;;;;;11.88;100.00;97251.59;5047466;28;20173;-61
2022/11/01 02:39:09;;;;;;;;;;;;;;;11.97;100.00;97248.13;5048149;28;20095;-61
2022/11/01 02:41:43;;;;;;;8.73;4.33;;;;;;;11.96;100.00;97249.19;5049871;28;19963;-61
2022/11/01 02:44:25;;;;;;;12.18;6.35;;;;;;;12.05;100.00;97248.69;5067494;28;20569;-62
2022/11/01 02:47:00;;;;;;;8.80;4.22;;;;;;;12.05;100.00;97235.97;5067220;28;20124;-62
2022/11/01 02:49:31;;;;;;;9.93;4.57;;;;;;;12.18;100.00;97233.84;5067001;28;20048;-62
2022/11/01 02:52:00;;;;;;;11.13;4.07;;;;;;;12.24;100.00;97208.34;5067254;28;20115;-62
2022/11/01 02:54:33;;;;;;;7.78;3.90;;;;;;;12.44;98.31;97226.59;5058374;28;20059;-62
2022/11/01 02:57:22;;;;;;;9.18;3.80;;;;;;;12.28;100.00;97239.31;5067373;28;20131;-62
2022/11/01 02:59:49;;;;;;;11.23;4.55;;;;;;;11.98;100.00;97262.50;5067112;28;20427;-61
2022/11/01 03:02:48;;;;;;;10.80;4.22;;;;;;;12.03;100.00;97272.56;5066798;28;20051;-61
2022/11/01 03:05:20;;;;;;;9.23;3.60;;;;;;;12.21;100.00;97260.47;5066140;28;20064;-61
2022/11/01 03:07:51;;;;;;;6.38;3.17;;;;;;;12.39;100.00;97269.22;5067187;28;20071;-61
2022/11/01 03:10:20;;;;;;;6.95;3.22;;;;;;;12.53;98.15;97253.22;5047289;28;20310;-61
2022/11/01 03:12:56;;;;;;;10.07;3.80;;;;;;;12.56;99.05;97256.22;5057926;28;20123;-62
2022/11/01 03:15:29;;;;;;;8.18;3.92;;;;;;;12.29;100.00;97249.09;5066555;28;20087;-62
2022/11/01 03:18:06;;;;;;;7.57;3.80;;;;;;;12.20;100.00;97246.06;5067035;28;20119;-61
2022/11/01 03:20:46;;;;;;;11.82;3.95;;;;;;;12.19;100.00;97254.47;5066695;28;20071;-62
2022/11/01 03:23:22;;;;;;;10.07;4.22;;;;;;;12.16;100.00;97276.72;5065189;28;20049;-61
2022/11/01 03:25:56;;;;;;;11.32;4.10;;;;;;;12.33;100.00;97271.91;5047162;28;20121;-61
2022/11/01 03:28:27;;;;;;;9.98;3.97;;;;;;;12.49;100.00;97277.38;5047169;28;20134;-62
2022/11/01 03:31:04;;;;;;;8.55;3.60;;;;;;;12.47;100.00;97277.66;5045250;28;20120;-62
2022/11/01 03:33:34;;;;;;;11.45;3.75;;;;;;;12.39;100.00;97289.03;5046839;28;20182;-62
2022/11/01 03:36:08;;;;;;;10.75;3.78;;;;;;;12.46;100.00;97294.22;5046927;28;20048;-62
2022/11/01 03:38:44;;;;;;;11.70;3.88;;;;;;;12.42;100.00;97303.97;5046179;28;20128;-62
2022/11/01 03:41:16;;;;;;;9.95;3.72;;;;;;;12.44;100.00;97299.09;5046276;28;20128;-62
2022/11/01 03:43:42;;;;;;;13.70;4.13;;;;;;;12.45;100.00;97309.69;5046275;28;20505;-61
2022/11/01 03:46:09;;;;;;;9.18;3.42;;;;;;;12.53;99.34;97310.25;5046523;28;20037;-62
2022/11/01 03:48:39;;;;;;;9.80;3.92;;;;;;;12.66;98.74;97312.47;5046639;28;20207;-62
2022/11/01 03:51:06;;;;;;;9.32;3.55;;;;;;;12.75;97.34;97319.03;5045636;28;20106;-61
2022/11/01 03:53:32;;;;;;;13.57;3.70;;;;;;;12.91;95.74;97315.53;5050973;28;20063;-62
2022/11/01 03:55:59;;;;;;;9.23;3.40;;;;;;;12.98;95.50;97321.53;5066024;28;20037;-62
2022/11/01 03:58:40;;;;;;;7.10;3.45;;;;;;;12.90;97.03;97322.03;5066405;28;20048;-62
2022/11/01 04:01:15;;;;;;;8.57;3.27;;;;;;;12.80;98.46;97331.81;5064936;28;20080;-62
2022/11/01 04:03:43;;;;;;;9.25;3.65;;;;;;;12.78;98.48;97333.97;5065616;28;20576;-62
2022/11/01 04:06:09;;;;;;;6.03;3.15;;;;;;;12.72;99.33;97321.47;5066016;28;20361;-62
2022/11/01 04:08:36;;;;;;;9.15;3.25;;;;;;;12.69;100.00;97320.09;5061601;28;20127;-62
2022/11/01 04:11:03;;;;;;;9.57;3.67;;;;;;;12.72;100.00;97311.41;5046024;28;20041;-62
2022/11/01 04:13:30;;;;;;;9.23;3.42;;;;;;;12.40;100.00;97327.84;5064359;28;20455;-62
2022/11/01 04:21:29;;;;;;;8.57;3.97;;;;;;;12.42;100.00;97361.00;5065486;28;20079;-62
2022/11/01 04:23:56;;;;;;;9.45;3.63;;;;;;;12.70;99.28;97361.66;5058174;28;20307;-62
2022/11/01 04:26:23;;;;;;;8.40;3.40;;;;;;;12.63;100.00;97363.81;5045281;28;20068;-62
2022/11/01 04:28:55;;;;;;;12.18;3.70;;;;;;;12.68;100.00;97356.47;5046016;28;20037;-62
2022/11/01 04:31:30;;;;;;;8.60;3.58;;;;;;;12.76;100.00;97376.91;5045076;28;20037;-62
2022/11/01 04:33:57;;;;;;;11.77;3.95;;;;;;;12.74;100.00;97376.34;5045780;28;20048;-62
2022/11/01 04:36:24;;;;;;;10.52;3.80;;;;;;;12.64;100.00;97387.97;5051244;28;20124;-62
2022/11/01 04:38:54;;;;;;;6.05;3.40;;;;;;;12.63;100.00;97382.81;5065438;28;20045;-62
2022/11/01 04:41:25;;;;;;;8.93;4.18;;;;;;;12.77;99.63;97370.38;5065090;28;20577;-62
2022/11/01 04:43:54;;;;;;;13.23;3.88;;;;;;;12.83;99.35;97377.44;5065864;28;20073;-62
2022/11/01 04:46:20;;;;;;;9.68;4.78;;;;;;;12.46;100.00;97384.63;5065410;28;20572;-62
2022/11/01 04:48:47;;;;;;;11.35;3.90;;;;;;;12.39;100.00;97385.97;5065281;28;20518;-62
2022/11/01 04:51:14;;;;;;;10.68;4.28;;;;;;;12.60;100.00;97384.97;5065078;28;20075;-62
2022/11/01 04:53:41;;;;;;;7.63;3.97;;;;;;;12.55;100.00;97400.44;5059500;28;20411;-62
2022/11/01 04:56:10;;;;;;;10.25;3.60;;;;;;;12.30;100.00;97399.19;5045957;28;20075;-62
2022/11/01 04:58:37;;;;;;;12.27;4.22;;;;;;;12.26;100.00;97403.53;5051691;28;20064;-62
2022/11/01 05:01:12;;;;;;;9.23;4.30;;;;;;;12.28;100.00;97394.06;5065499;28;20090;-61
2022/11/01 05:03:39;;;;;;;8.48;3.80;;;;;;;12.34;100.00;97394.88;5066200;28;20213;-62
2022/11/01 05:06:05;;;;;;;11.15;4.05;;;;;;;12.41;100.00;97390.03;5065146;28;20041;-62
2022/11/01 05:08:32;;;;;;;9.35;3.63;;;;;;;12.43;100.00;97392.50;5066003;28;20124;-62
2022/11/01 05:10:58;;;;;;;11.93;3.78;;;;;;;12.50;100.00;97384.94;5065018;28;20500;-62
2022/11/01 05:13:25;;;;;;;8.65;3.80;;;;;;;12.55;100.00;97400.44;5061694;28;20111;-62
2022/11/01 05:15:51;;;;;;;10.05;3.80;;;;;;;12.27;100.00;97440.47;5063469;28;20046;-62
2022/11/01 05:18:41;;;;;;;13.48;4.20;;;;;;;12.41;100.00;97438.09;5068432;28;20044;-62
2022/11/01 05:21:07;;;;;;;7.72;3.13;;;;;;;12.61;100.00;97443.66;5066922;28;20355;-62
2022/11/01 05:23:34;;;;;;;6.82;3.03;;;;;;;12.80;100.00;97443.22;5063478;28;20064;-62
2022/11/01 05:26:00;;;;;;;5.75;2.47;;;;;;;12.90;100.00;97431.53;5066447;28;20033;-62
2022/11/01 05:28:27;;;;;;;8.25;3.30;;;;;;;12.73;100.00;97440.75;5068077;28;20076;-62
2022/11/01 05:30:53;;;;;;;7.28;3.25;;;;;;;12.56;100.00;97442.78;5068676;28;20076;-62
2022/11/01 05:33:19;;;;;;;6.82;2.60;;;;;;;12.56;100.00;97434.66;5068476;28;20555;-62
2022/11/01 05:35:46;;;;;;;12.07;2.85;;;;;;;12.60;100.00;97414.84;5068775;28;20047;-62
2022/11/01 05:38:12;;;;;;;8.10;2.75;;;;;;;12.67;100.00;97400.19;5068832;28;20119;-62
2022/11/01 05:40:39;;;;;;;4.10;1.30;;;;;;;12.80;100.00;97375.28;5057786;28;20473;-62
2022/11/01 05:43:05;;;;;;;8.85;2.03;;;;;;;12.88;100.00;97371.22;5060422;28;20095;-62
2022/11/01 05:45:32;;;;;;;5.90;1.30;;;;;;;12.98;100.00;97401.13;5056081;28;20120;-62
2022/11/01 05:48:03;;;;;;;5.55;1.30;;;;;;;13.03;100.00;97416.66;5058569;28;20090;-62
2022/11/01 05:50:29;;;;;;;4.43;1.20;;;;;;;12.95;100.00;97412.56;5052574;28;20037;-62
2022/11/01 05:53:06;;;;;;;3.45;0.90;;;;;;;12.93;100.00;97420.16;5061101;28;20726;-62
2022/11/01 05:55:33;;;;;;;5.57;1.25;;;;;;;12.94;100.00;97429.94;5075043;28;20033;-61
2022/11/01 05:58:00;;;;;;;2.97;1.15;;;;;;;12.95;100.00;97431.59;5058626;28;20459;-62
2022/11/01 06:00:27;;;;;;;3.92;1.30;;;;;;;12.92;100.00;97439.44;5053588;28;20049;-62
2022/11/01 06:02:56;;;;;;;2.78;1.15;;;;;;;12.83;100.00;97445.38;5064096;28;20064;-62
2022/11/01 06:05:23;;;;;;;2.50;1.00;;;;;;;12.74;100.00;97444.25;5058741;28;20338;-62
2022/11/01 06:07:50;;;;;;;4.85;1.20;;;;;;;12.63;100.00;97453.44;5057540;28;20496;-62
2022/11/01 06:10:16;;;;;;;3.65;1.42;;;;;;;12.45;100.00;97453.59;5055370;28;20108;-62
2022/11/01 06:12:43;;;;;;;3.67;1.30;;;;;;;12.34;100.00;97450.00;5060940;28;20072;-62
2022/11/01 06:15:10;;;;;;;3.85;1.60;;;;;;;12.30;100.00;97456.22;5053365;28;20594;-62
2022/11/01 06:17:36;;;;;;;3.85;1.30;;;;;;;12.21;100.00;97461.31;5051110;28;20106;-63
2022/11/01 06:20:03;;;;;;;3.25;1.30;;;;;;;12.17;100.00;97462.94;5067131;28;20036;-63
2022/11/01 06:22:29;;;;;;;3.92;1.20;;;;;;;12.19;100.00;97460.75;5067733;28;20135;-62
2022/11/01 06:24:56;;;;;;;3.40;1.20;;;;;;;12.16;100.00;97469.44;5049598;28;20065;-62
2022/11/01 06:27:23;;;;;;;3.50;1.02;;;;;;;12.10;100.00;97477.53;5046397;28;20087;-62
2022/11/01 06:29:50;;;;;;;4.05;1.20;;;;;;;12.09;100.00;97480.53;5046482;28;20144;-62
2022/11/01 06:32:16;;;;;;;7.22;1.48;;;;;;;12.09;100.00;97484.03;5046450;28;20055;-62
2022/11/01 06:34:43;;;;;;;2.53;0.88;;;;;;;12.20;100.00;97479.50;5047085;28;20409;-62
2022/11/01 06:37:10;;;;;;;2.45;0.93;;;;;;;12.44;100.00;97481.84;5063479;28;20120;-62
2022/11/01 06:39:37;;;;;;;2.30;1.30;;;;;;;12.73;100.00;97486.91;5062596;28;20079;-62
2022/11/01 06:42:04;;;;;;;2.60;0.90;;;;;;;12.93;100.00;97484.56;5061503;28;20123;-62
2022/11/01 06:44:30;;;;;;;2.38;0.70;;;;;;;13.05;100.00;97481.63;5051352;28;20141;-62
2022/11/01 06:46:57;;;;;;;2.05;0.60;;;;;;;13.11;100.00;97486.00;5061627;28;20082;-62
2022/11/01 06:49:24;;;;;;;2.63;0.75;;;;;;;13.25;100.00;97491.75;5063744;28;20052;-62
2022/11/01 06:51:50;;;;;;;0.73;0.50;;;;;;;13.35;100.00;97491.78;5061744;28;20053;-62
2022/11/01 06:54:17;;;;;;;3.58;0.63;;;;;;;13.37;100.00;97494.25;5064168;28;20592;-62
2022/11/01 06:56:46;;;;;;;2.17;0.68;;;;;;;13.32;100.00;97502.38;5065228;28;20466;-62
2022/11/01 06:59:15;;;;;;;3.90;0.93;;;;;;;13.19;100.00;97504.50;5065472;28;20411;-62
2022/11/01 07:01:42;;;;;;;2.00;0.77;;;;;;;13.17;100.00;97506.69;5057792;28;20052;-62
2022/11/01 07:04:09;;;;;;;1.70;0.80;;;;;;;13.24;100.00;97509.16;5065978;28;20106;-62
2022/11/01 07:06:37;;;;;;;2.53;0.95;;;;;;;13.23;100.00;97516.50;5064491;28;20051;-62
2022/11/01 07:09:04;;;;;;;1.60;0.63;;;;;;;13.20;100.00;97529.81;5060320;28;20056;-62
2022/11/01 07:11:32;;;;;;;1.05;0.63;;;;;;;13.19;100.00;97523.53;5064463;28;20473;-62
2022/11/01 07:13:58;;;;;;;1.80;0.77;;;;;;;13.16;100.00;97524.06;5064943;28;20124;-62
2022/11/01 07:16:26;;;;;;;1.38;0.50;;;;;;;13.14;100.00;97523.53;5063548;28;20044;-62
2022/11/01 07:18:52;;;;;;;2.03;0.77;;;;;;;13.08;100.00;97522.69;5064935;28;20048;-62
2022/11/01 07:21:19;;;;;;;1.55;0.80;;;;;;;13.11;100.00;97537.63;5064178;28;20036;-62
2022/11/01 07:23:46;;;;;;;1.63;0.82;;;;;;;13.08;100.00;97533.56;5057214;28;20478;-62
2022/11/01 07:26:13;;;;;;;1.40;0.70;;;;;;;13.13;100.00;97527.34;5045588;28;20649;-62
2022/11/01 07:28:39;;;;;;;1.52;0.70;;;;;;;13.10;100.00;97512.38;5045501;28;20446;-62
2022/11/01 07:31:06;;;;;;;2.13;0.73;;;;;;;13.12;100.00;97525.72;5046434;28;20416;-62
2022/11/01 07:33:32;;;;;;;1.38;0.60;;;;;;;13.27;100.00;97527.69;5046328;28;20096;-62
2022/11/01 07:36:00;;;;;;;1.45;0.60;;;;;;;13.43;100.00;97531.25;5046075;28;20115;-62
2022/11/01 07:38:26;;;;;;;3.45;0.82;;;;;;;13.45;100.00;97533.72;5046693;28;20088;-62
2022/11/01 07:40:53;;;;;;;0.70;0.50;;;;;;;13.48;100.00;97539.47;5045937;28;20436;-62
2022/11/01 07:43:20;;;;;;;1.13;0.40;;;;;;;13.58;100.00;97555.00;5063773;28;20370;-62
2022/11/01 07:45:47;;;;;;;1.27;0.50;;;;;;;13.55;100.00;97555.53;5063816;28;20491;-62
2022/11/01 07:48:15;;;;;;;1.73;0.70;;;;;;;13.56;100.00;97559.88;5065153;28;20047;-62
2022/11/01 07:50:43;;;;;;;2.75;0.82;;;;;;;13.57;100.00;97566.16;5065548;28;20448;-62
2022/11/01 07:53:14;;;;;;;2.03;1.02;;;;;;;13.62;100.00;97572.44;5065659;28;20040;-62
2022/11/01 07:55:41;;;;;;;;;;;;;;;13.67;100.00;97568.91;5066955;28;20055;-62
2022/11/01 07:58:08;;;;;;;0.88;0.50;;;;;;;13.70;100.00;97571.09;5065983;28;19945;-62
2022/11/01 08:00:36;;;;;;;1.90;0.90;;;;;;;13.78;100.00;97567.03;5066375;28;20067;-62
2022/11/01 08:03:06;;;;;;;2.28;0.60;;;;;;;13.99;98.70;97569.78;5060854;28;20758;-62
2022/11/01 08:05:33;;;;;;;0.90;0.40;;;;;;;14.17;97.35;97577.47;5064188;28;20569;-62
2022/11/01 08:08:00;;;;;;;1.67;0.60;;;;;;;14.30;96.41;97587.00;5041173;28;20138;-63
2022/11/01 08:10:28;;;;;;;2.88;0.73;;;;;;;14.30;95.69;97595.16;5058410;28;20053;-61
2022/11/01 08:13:21;;;;;;;0.98;0.40;;;;;;;14.32;96.02;97594.91;5063895;28;20079;-59
2022/11/01 08:15:50;;;;;;;0.45;0.30;;;;;;;14.39;95.20;97603.63;5064049;28;20037;-58
2022/11/01 08:18:21;;;;;;;1.13;0.50;;;;;;;14.40;91.71;97602.53;5057176;28;20067;-58
2022/11/01 08:20:48;;;;;;;1.85;0.65;;;;;;;14.29;91.47;97606.31;5056063;28;20702;-59
2022/11/01 08:23:15;;;;;;;1.33;0.60;;;;;;;14.15;92.63;97617.75;5050741;28;20150;-55
2022/11/01 08:25:41;;;;;;;1.45;0.50;;;;;;;14.07;92.53;97628.38;5018607;28;20059;-58
2022/11/01 08:28:14;;;;;;;2.00;0.50;;;;;;;14.03;90.83;97620.72;5025768;28;20068;-58
2022/11/01 08:30:42;;;;;;;3.60;0.60;;;;;;;14.08;90.60;97610.94;5052074;28;20054;-58
2022/11/01 08:33:09;;;;;;;2.63;0.60;;;;;;;14.02;91.23;97613.66;5049019;28;20511;-59
2022/11/01 08:35:36;;;;;;;1.52;1.02;;;;;;;14.07;88.15;97603.84;5063682;28;20078;-59
2022/11/01 08:38:03;;;;;;;2.38;1.00;;;;;;;14.08;89.03;97600.84;5063531;28;20140;-60
2022/11/01 08:40:31;;;;;;;3.80;0.70;;;;;;;13.99;88.45;97603.28;5063081;28;20149;-60
2022/11/01 08:42:58;;;;;;;4.32;1.73;;;;;;;13.98;89.80;97598.09;5059802;28;20041;-59
2022/11/01 08:45:26;;;;;;;2.65;0.70;;;;;;;13.95;90.42;97594.03;5053208;28;20059;-58
2022/11/01 08:48:11;;;;;;;3.50;0.77;;;;;;;13.91;88.77;97593.75;5055560;28;20042;-59
2022/11/01 08:50:38;;;;;;;1.23;0.60;;;;;;;13.97;88.56;97591.03;5030927;28;20048;-57
2022/11/01 08:53:10;;;;;;;2.95;0.88;;;;;;;14.10;88.00;97606.84;5018732;28;20047;-59
2022/11/01 08:55:37;;;;;;;2.17;0.85;;;;;;;14.22;87.62;97601.13;5042146;28;20312;-60
2022/11/01 08:58:05;;;;;;;3.58;0.80;;;;;;;14.27;89.13;97605.78;5049167;28;20047;-60
2022/11/01 09:00:32;;;;;;;2.67;0.50;;;;;;;14.33;88.61;97599.25;5055305;28;20547;-60
2022/11/01 09:02:59;;;;;;;2.22;0.60;;;;;;;14.44;89.24;97598.19;5051099;28;20137;-60
2022/11/01 09:05:27;;;;;;;1.45;0.52;;;;;;;14.60;89.38;97605.53;5050991;28;20075;-60
2022/11/01 09:07:57;;;;;;;2.45;0.77;;;;;;;14.82;87.16;97605.28;5054737;28;20119;-60
2022/11/01 09:10:25;;;;;;;1.60;1.02;;;;;;;14.92;87.65;97616.19;5062996;28;20127;-60
2022/11/01 09:12:52;;;;;;;2.80;0.82;;;;;;;15.02;86.70;97615.34;5062419;28;20133;-60
2022/11/01 09:15:18;;;;;;;3.15;0.60;;;;;;;15.15;84.65;97613.94;5063703;28;20541;-61
2022/11/01 09:17:45;;;;;;;2.42;0.80;;;;;;;15.28;85.41;97609.00;5062380;28;20049;-60
2022/11/01 09:20:11;;;;;;;2.00;0.50;;;;;;;15.41;85.67;97616.59;5050271;28;20368;-58
2022/11/01 09:22:38;;;;;;;2.80;0.70;;;;;;;15.57;82.07;97627.47;5035414;28;20060;-57
2022/11/01 09:25:05;;;;;;;1.42;0.40;;;;;;;15.59;81.83;97623.38;5054726;28;20124;-57
2022/11/01 09:27:32;;;;;;;1.45;0.60;;;;;;;15.82;83.03;97618.34;5055163;28;20041;-58
2022/11/01 09:29:59;;;;;;;1.38;0.40;;;;;;;15.91;78.43;97620.50;5052645;28;20500;-57
2022/11/01 09:32:28;;;;;;;1.60;0.60;;;;;;;15.98;78.11;97616.41;5050914;28;20907;-56
2022/11/01 09:34:55;;;;;;;2.42;0.52;;;;;;;15.88;80.46;97610.97;5050104;28;20656;-61
2022/11/01 09:37:21;;;;;;;2.20;0.55;;;;;;;15.79;80.00;97618.09;5053929;28;20116;-57
2022/11/01 09:39:48;;;;;;;2.70;0.68;;;;;;;16.00;79.09;97635.25;5060148;28;20048;-58
2022/11/01 09:42:38;;;;;;;1.75;0.50;;;;;;;16.03;77.34;97625.69;5062551;28;20145;-58
2022/11/01 09:45:18;;;;;;;1.92;0.63;;;;;;;15.98;78.88;97632.81;5058776;28;20040;-59
2022/11/01 09:47:51;;;;;;;3.08;0.50;;;;;;;16.03;77.22;97629.22;5062231;28;20130;-59
2022/11/01 09:50:25;;;;;;;2.38;0.80;;;;;;;16.13;76.36;97633.81;5062658;28;20484;-59
2022/11/01 09:52:55;;;;;;;3.53;0.70;;;;;;;15.93;78.74;97632.81;5062837;28;20072;-57
2022/11/01 09:56:12;;;;;;;6.43;0.95;;;;;;;16.02;77.06;97637.69;5050120;28;20131;-57
2022/11/01 09:58:42;;;;;;;2.08;0.50;;;;;;;16.04;78.69;97633.59;5039137;28;20131;-58
2022/11/01 10:01:27;;;;;;;2.38;0.88;;;;;;;16.18;75.69;97639.22;5064910;28;20547;-58
2022/11/01 10:04:21;;;;;;;1.90;0.65;;;;;;;16.16;76.00;97635.16;5066212;28;20053;-57
2022/11/01 10:07:05;;;;;;;2.40;0.82;;;;;;;16.27;75.84;97644.94;5053590;28;20044;-58
2022/11/01 10:10:03;;;;;;;3.22;0.77;;;;;;;16.27;75.31;97646.84;5050876;28;20049;-60
2022/11/01 10:12:52;;;;;;;4.22;1.00;;;;;;;16.24;74.82;97646.31;5038170;28;20200;-58
2022/11/01 10:15:26;;;;;;;3.95;1.15;;;;;;;16.18;75.55;97643.91;5068678;28;20252;-63
2022/11/01 10:17:57;;;;;;;8.10;3.83;;;;;;;16.11;76.57;97649.69;5052163;28;20423;-61
2022/11/01 10:20:32;;;;;;;4.78;1.02;;;;;;;16.16;76.50;97659.75;5065844;28;20082;-61
2022/11/01 10:23:00;;;;;;;1.55;0.85;;;;;;;16.13;77.30;97642.00;5064747;28;20470;-61
2022/11/01 10:25:36;;;;;;;4.80;1.02;;;;;;;16.04;77.87;97649.16;5054051;28;20611;-61
2022/11/01 10:28:29;;;;;;;2.72;1.20;;;;;;;15.90;77.69;97654.38;5056732;28;20163;-61
2022/11/01 10:31:02;;;;;;;7.30;1.25;;;;;;;15.86;78.36;97654.13;5048554;28;20056;-62
2022/11/01 10:33:40;;;;;;;2.60;0.80;;;;;;;15.80;78.57;97652.50;5057603;28;20119;-60
2022/11/01 10:36:18;;;;;;;3.33;0.90;;;;;;;15.79;78.03;97651.69;5049917;28;20688;-60
2022/11/01 10:38:47;;;;;;;4.40;0.90;;;;;;;15.91;77.02;97650.53;5061854;28;20063;-59
2022/11/01 10:41:52;;;;;;;2.70;0.68;;;;;;;15.90;76.36;97647.00;5065312;28;20055;-59
2022/11/01 10:44:53;;;;;;;2.60;0.80;;;;;;;15.79;77.24;97650.88;5079895;28;20068;-59
2022/11/01 10:47:23;;;;;;;5.88;1.05;;;;;;;15.81;76.74;97646.75;5065652;28;20047;-57
2022/11/01 10:50:03;;;;;;;2.65;0.73;;;;;;;15.75;76.67;97639.69;5064861;28;20483;-60
2022/11/01 10:52:45;;;;;;;2.40;0.90;;;;;;;15.74;75.74;97647.06;5065101;28;20048;-60
2022/11/01 10:55:18;;;;;;;5.05;1.30;;;;;;;15.80;76.55;97647.88;5065195;28;20119;-57
2022/11/01 10:57:51;;;;;;;4.45;0.98;;;;;;;15.82;76.05;97644.84;5065485;28;20090;-59
2022/11/01 11:00:19;;;;;;;5.00;1.17;;;;;;;15.90;77.18;97644.28;5059081;28;20049;-61
2022/11/01 11:03:06;;;;;;;2.17;0.90;;;;;;;16.02;76.26;97637.69;5058023;28;20127;-62
2022/11/01 11:05:33;;;;;;;3.08;0.93;;;;;;;16.04;74.65;97651.88;5065541;28;20542;-58
2022/11/01 11:08:03;;;;;;;3.78;1.10;;;;;;;16.12;75.33;97656.75;5064712;28;20036;-59
2022/11/01 11:10:30;;;;;;;5.40;0.93;;;;;;;16.24;73.58;97654.50;5064469;28;20036;-59
2022/11/01 11:13:05;;;;;;;1.98;0.70;;;;;;;16.31;73.10;97651.47;5064497;28;20059;-59
2022/11/01 11:15:46;;;;;;;4.22;1.10;;;;;;;16.21;72.35;97659.69;5057762;28;20036;-59
2022/11/01 11:18:31;;;;;;;2.55;0.90;;;;;;;16.31;70.44;97662.38;5053204;28;20040;-59
2022/11/01 11:21:01;;;;;;;2.67;0.70;;;;;;;16.24;70.42;97659.97;5062726;28;20106;-59
2022/11/01 11:23:31;;;;;;;2.70;0.70;;;;;;;16.16;70.12;97659.75;5064445;28;20147;-60
2022/11/01 11:26:08;;;;;;;1.83;0.75;;;;;;;15.92;69.01;97666.66;5064530;28;20048;-60
2022/11/01 11:28:43;;;;;;;4.57;2.55;;;;;;;15.86;70.11;97665.03;5064574;28;20052;-59
2022/11/01 11:31:19;;;;;;;3.00;0.90;;;;;;;15.98;71.45;97665.56;5051652;28;20607;-60
2022/11/01 11:33:52;;;;;;;3.78;1.00;;;;;;;15.77;78.91;97672.97;5064780;28;20515;-59
2022/11/01 11:36:28;;;;;;;4.32;1.73;;;;;;;15.41;81.76;97670.38;5058432;28;20319;-57
2022/11/01 11:38:54;;;;;;;3.17;1.13;;;;;;;15.15;83.53;97665.75;5062756;28;20135;-57
2022/11/01 11:41:27;;;;;;;6.35;2.10;;;;;;;15.32;84.41;97675.56;5063839;28;20063;-58
2022/11/01 11:43:54;;;;;;;5.25;1.13;;;;;;;15.09;85.81;97672.34;5064356;28;20068;-54
2022/11/01 11:46:23;;;;;;;4.85;1.20;;;;;;;15.16;84.67;97670.16;5064429;28;20127;-55
2022/11/01 11:49:00;;;;;;;3.80;1.38;;;;;;;14.78;86.21;97675.06;5051189;28;20040;-59